ES-0001 weather

Trebujena Airfield
Trebujena, AndalucĂ­a, Spain

Public forecast

Using degrees Celsius for public forecast. Weather courtesy of forecast.io.

METAR (pilot weather report)

Closest report is Jerez Airport, 7.8 nm (14.5 km) SSE. Retrieved 2019/02/22 01:30 UTC (8 minutes ago):

LEJR 220130Z AUTO VRB02KT 9999 NCD 10/06 Q1029

TAF (pilot weather forecast)

Forecast is more than 12 hours old.

Closest forecast is Jerez Airport, 7.8 nm (14.5 km) SSE. Retrieved 2019/02/21 00:27 UTC (1 day ago):

TAF LEJR 212300Z 2200/2224 07004KT CAVOK TX22/2215Z TN04/2206Z BECMG 2213/2215 14012KT BECMG 2218/2220 07004KT